Time;durP1;ratioP1;P1;durP2;ratioP2;P2;SDS_P1;SDS_P2;PMS_P1;PMS_P2;Temp;Humidity;BMP_temperature;BMP_pressure;BME280_temperature;BME280_humidity;BME280_pressure;Samples;Min_cycle;Max_cycle;Signal;HPM_P1;HPM_P2
2020/12/18 00:01:18;;;;;;;32.60;22.47;;;;;;;4.09;100.00;98960.53;5102106;28;20555;-71
2020/12/18 00:03:44;;;;;;;31.43;22.47;;;;;;;4.14;100.00;98952.34;5106611;28;20246;-70
2020/12/18 00:06:10;;;;;;;34.40;22.83;;;;;;;4.18;100.00;98950.69;5092887;28;20248;-69
2020/12/18 00:08:38;;;;;;;37.17;23.47;;;;;;;4.11;100.00;98952.88;5093975;28;20257;-69
2020/12/18 00:11:08;;;;;;;34.47;22.93;;;;;;;4.22;100.00;98949.03;5090152;28;20682;-69
2020/12/18 00:13:34;;;;;;;34.47;23.87;;;;;;;4.55;100.00;98947.56;5090765;28;20243;-70
2020/12/18 00:16:00;;;;;;;38.03;25.43;;;;;;;4.43;100.00;98947.09;5093244;28;20232;-69
2020/12/18 00:18:26;;;;;;;37.87;25.33;;;;;;;4.19;100.00;98940.56;5093084;28;20266;-69
2020/12/18 00:20:55;;;;;;;43.90;24.73;;;;;;;4.11;100.00;98934.59;5093094;28;20201;-69
2020/12/18 00:23:21;;;;;;;42.23;26.00;;;;;;;4.11;100.00;98942.78;5092983;28;20227;-68
2020/12/18 00:25:49;;;;;;;39.17;24.93;;;;;;;4.41;100.00;98935.59;5093270;28;20228;-68
2020/12/18 00:28:16;;;;;;;43.33;25.87;;;;;;;4.32;100.00;98940.00;5091951;28;20296;-68
2020/12/18 00:30:42;;;;;;;43.03;26.63;;;;;;;4.10;100.00;98937.59;5093073;28;20635;-69
2020/12/18 00:33:08;;;;;;;40.50;25.30;;;;;;;4.06;100.00;98948.25;5092044;28;20227;-68
2020/12/18 00:35:34;;;;;;;42.17;26.50;;;;;;;3.99;100.00;98945.00;5093100;28;20307;-68
2020/12/18 00:38:01;;;;;;;41.17;26.23;;;;;;;4.20;100.00;98943.03;5093061;28;20287;-69
2020/12/18 00:40:27;;;;;;;48.90;25.83;;;;;;;4.14;100.00;98939.50;5092879;28;20247;-68
2020/12/18 00:42:53;;;;;;;43.67;25.20;;;;;;;4.03;100.00;98946.06;5092335;28;20212;-68
2020/12/18 00:45:19;;;;;;;47.03;26.30;;;;;;;3.95;100.00;98949.38;5092948;28;20220;-68
2020/12/18 00:47:45;;;;;;;46.43;27.20;;;;;;;3.92;100.00;98940.91;5092955;28;20204;-68
2020/12/18 00:50:11;;;;;;;65.83;28.93;;;;;;;4.04;100.00;98939.53;5093895;28;20609;-69
2020/12/18 00:52:37;;;;;;;49.83;29.53;;;;;;;4.02;100.00;98943.59;5093087;28;20254;-68
2020/12/18 00:55:03;;;;;;;56.97;28.87;;;;;;;3.99;100.00;98945.00;5093930;28;20260;-68
2020/12/18 00:57:30;;;;;;;56.23;30.17;;;;;;;4.06;100.00;98953.72;5093918;28;20224;-69
2020/12/18 01:34:08;;;;;;;65.70;31.00;;;;;;;4.42;100.00;98975.50;5132099;27;20517;-69
2020/12/18 01:36:36;;;;;;;57.93;30.03;;;;;;;4.39;100.00;98986.97;5117967;28;20299;-67
2020/12/18 01:39:03;;;;;;;56.63;31.17;;;;;;;4.09;100.00;98988.66;5111230;28;20257;-67
2020/12/18 01:41:30;;;;;;;70.70;32.03;;;;;;;4.18;100.00;98977.19;5111805;28;20826;-69
2020/12/18 01:43:56;;;;;;;61.80;31.00;;;;;;;4.15;100.00;98978.56;5113026;28;20206;-68
2020/12/18 01:46:29;;;;;;;67.07;31.43;;;;;;;4.06;100.00;98981.03;5113459;28;20200;-67
2020/12/18 01:48:56;;;;;;;84.17;30.57;;;;;;;4.02;100.00;98981.84;5110340;28;20294;-69
2020/12/18 01:51:22;;;;;;;54.00;30.47;;;;;;;4.44;100.00;98973.31;5108210;28;20286;-68
2020/12/18 01:53:49;;;;;;;56.90;31.37;;;;;;;4.50;100.00;98978.50;5108846;28;20232;-69
2020/12/18 01:56:16;;;;;;;74.00;33.70;;;;;;;4.41;100.00;98977.41;5109120;28;20844;-68
2020/12/18 01:58:43;;;;;;;69.50;29.87;;;;;;;4.07;100.00;98979.09;5109343;28;20295;-67
2020/12/18 02:01:10;;;;;;;65.87;30.07;;;;;;;3.99;100.00;98968.75;5109034;28;20670;-68
2020/12/18 02:03:37;;;;;;;64.63;29.53;;;;;;;4.06;100.00;98970.09;5108927;28;20288;-68
2020/12/18 02:06:15;;;;;;;78.17;30.10;;;;;;;4.00;100.00;98973.09;5109101;28;20224;-68
2020/12/18 02:08:43;;;;;;;83.50;30.87;;;;;;;3.95;100.00;98981.31;5109029;28;20264;-69
2020/12/18 02:11:14;;;;;;;80.83;31.33;;;;;;;4.03;100.00;98975.31;5109147;28;20204;-68
2020/12/18 02:13:40;;;;;;;63.00;30.93;;;;;;;3.96;100.00;98978.28;5108571;28;20238;-68
2020/12/18 02:16:06;;;;;;;62.37;31.47;;;;;;;4.09;100.00;98977.75;5109352;28;20256;-69
2020/12/18 02:18:32;;;;;;;62.63;32.93;;;;;;;4.33;100.00;98972.50;5120081;28;20258;-69
2020/12/18 02:21:01;;;;;;;84.63;31.73;;;;;;;4.11;100.00;98981.03;5129532;28;20211;-69
2020/12/18 02:23:28;;;;;;;60.90;32.30;;;;;;;4.19;100.00;98974.19;5108943;28;20294;-69
2020/12/18 02:26:05;;;;;;;64.93;33.30;;;;;;;4.63;100.00;98971.63;5108927;28;20263;-68
2020/12/18 02:28:36;;;;;;;56.07;30.37;;;;;;;4.42;100.00;98973.59;5109092;28;20619;-68
2020/12/18 02:31:02;;;;;;;51.20;27.87;;;;;;;4.35;100.00;98966.75;5109572;28;20208;-69
2020/12/18 02:33:30;;;;;;;54.13;30.67;;;;;;;4.19;100.00;98970.63;5108712;28;20255;-69
2020/12/18 02:36:01;;;;;;;54.27;30.70;;;;;;;4.43;100.00;98963.47;5109385;28;20231;-68
2020/12/18 02:38:33;;;;;;;55.80;31.17;;;;;;;4.34;100.00;98963.22;5109011;28;20294;-69
2020/12/18 02:41:00;;;;;;;59.47;31.20;;;;;;;4.22;100.00;98962.69;5108743;28;20749;-69
2020/12/18 02:43:26;;;;;;;60.27;30.83;;;;;;;4.26;100.00;98957.50;5106737;28;20294;-69
2020/12/18 02:45:52;;;;;;;54.23;30.30;;;;;;;4.26;100.00;98960.22;5094512;28;20709;-69
2020/12/18 02:48:18;;;;;;;54.80;29.40;;;;;;;4.41;100.00;98957.47;5094888;28;20299;-68
2020/12/18 02:50:49;;;;;;;51.23;28.77;;;;;;;4.47;100.00;98957.16;5094804;28;20205;-68
2020/12/18 02:53:19;;;;;;;44.53;26.83;;;;;;;4.35;100.00;98959.41;5094263;28;20224;-68
2020/12/18 02:55:46;;;;;;;51.77;29.43;;;;;;;4.19;100.00;98959.69;5076598;28;20674;-68
2020/12/18 02:58:13;;;;;;;52.90;28.93;;;;;;;4.29;100.00;98954.22;5093527;28;20288;-68
2020/12/18 03:00:40;;;;;;;59.87;30.97;;;;;;;4.25;100.00;98958.59;5094707;28;20229;-67
2020/12/18 03:03:07;;;;;;;133.23;32.30;;;;;;;4.29;100.00;98957.75;5098087;28;20231;-68
2020/12/18 03:05:34;;;;;;;94.70;33.07;;;;;;;4.17;100.00;98948.22;5112084;28;20236;-68
2020/12/18 03:08:01;;;;;;;119.63;34.13;;;;;;;4.11;100.00;98959.16;5102149;28;20204;-68
2020/12/18 03:10:27;;;;;;;121.37;34.47;;;;;;;4.19;100.00;98952.34;5091487;28;20322;-68
2020/12/18 03:12:56;;;;;;;112.77;35.33;;;;;;;4.05;100.00;98954.00;5095515;28;20319;-67
2020/12/18 03:15:22;;;;;;;85.07;31.53;;;;;;;4.00;100.00;98954.81;5094213;28;20224;-68
2020/12/18 03:17:48;;;;;;;76.73;32.47;;;;;;;4.20;100.00;98955.88;5095394;28;20729;-68
2020/12/18 03:20:14;;;;;;;64.70;31.87;;;;;;;4.44;100.00;98960.47;5095597;28;20210;-69
2020/12/18 03:22:45;;;;;;;74.70;32.70;;;;;;;4.25;100.00;98958.59;5094501;28;20185;-69
2020/12/18 03:25:12;;;;;;;95.90;34.17;;;;;;;4.09;100.00;98966.81;5094308;28;20225;-68
2020/12/18 03:27:43;;;;;;;93.93;32.17;;;;;;;4.07;100.00;98968.16;5094369;28;20555;-69
2020/12/18 03:30:09;;;;;;;73.67;33.50;;;;;;;4.20;100.00;98964.09;5094371;28;20240;-68
2020/12/18 03:32:35;;;;;;;70.40;31.97;;;;;;;4.23;100.00;98975.28;5094285;28;20320;-69
2020/12/18 03:35:05;;;;;;;82.50;33.13;;;;;;;4.09;100.00;98977.75;5095102;28;20328;-68
2020/12/18 03:37:31;;;;;;;70.00;31.93;;;;;;;4.19;100.00;98976.09;5094687;28;20699;-67
2020/12/18 03:39:57;;;;;;;85.13;33.43;;;;;;;4.12;100.00;98976.38;5095169;28;20287;-67
2020/12/18 03:42:23;;;;;;;96.97;33.03;;;;;;;4.01;100.00;98980.22;5093449;28;20705;-69
2020/12/18 03:44:49;;;;;;;74.90;33.37;;;;;;;4.22;100.00;98972.78;5094878;28;20228;-68
2020/12/18 03:47:15;;;;;;;87.13;31.53;;;;;;;4.13;100.00;98967.91;5094106;28;20277;-68
2020/12/18 03:49:41;;;;;;;83.07;34.07;;;;;;;4.24;100.00;98976.91;5095008;28;20204;-67
2020/12/18 03:52:07;;;;;;;75.47;31.73;;;;;;;4.25;100.00;98972.25;5094758;28;20579;-68
2020/12/18 03:54:33;;;;;;;71.27;30.13;;;;;;;4.20;100.00;98978.53;5094190;28;20253;-67
2020/12/18 03:57:02;;;;;;;71.00;31.57;;;;;;;4.23;100.00;98966.25;5093473;28;20205;-67
2020/12/18 03:59:28;;;;;;;78.17;32.33;;;;;;;4.23;100.00;98966.25;5094779;28;20208;-67
2020/12/18 04:01:54;;;;;;;73.87;32.07;;;;;;;4.13;100.00;98967.91;5092886;28;20299;-67
2020/12/18 04:04:22;;;;;;;75.67;33.67;;;;;;;4.35;100.00;98969.50;5094374;28;20233;-67
2020/12/18 04:06:49;;;;;;;84.67;34.40;;;;;;;4.20;100.00;98964.09;5094076;28;20262;-68
2020/12/18 04:09:15;;;;;;;75.47;31.53;;;;;;;4.21;100.00;98961.06;5093382;28;20295;-68
2020/12/18 04:11:41;;;;;;;72.57;33.33;;;;;;;4.28;100.00;98952.56;5089632;28;20834;-69
2020/12/18 04:14:11;;;;;;;81.70;32.63;;;;;;;4.55;100.00;98958.50;5092644;28;20320;-70
2020/12/18 04:16:37;;;;;;;80.90;34.37;;;;;;;4.44;100.00;98952.25;5093383;28;20247;-69
2020/12/18 04:19:03;;;;;;;76.40;32.63;;;;;;;4.54;100.00;98948.69;5093143;28;20204;-69
2020/12/18 04:21:29;;;;;;;85.30;32.07;;;;;;;4.45;100.00;98953.91;5092855;28;20215;-69
2020/12/18 04:23:55;;;;;;;67.00;32.03;;;;;;;4.33;100.00;98949.81;5092694;28;20217;-69
2020/12/18 04:26:22;;;;;;;57.07;28.63;;;;;;;4.24;100.00;98946.03;5092715;28;20212;-68
2020/12/18 04:28:49;;;;;;;55.17;28.80;;;;;;;4.20;100.00;98939.50;5093035;28;20291;-68
2020/12/18 04:31:18;;;;;;;50.83;27.83;;;;;;;4.18;100.00;98947.94;5093254;28;20232;-68
2020/12/18 04:33:45;;;;;;;51.30;27.33;;;;;;;4.02;100.00;98949.91;5092327;28;20236;-69
2020/12/18 04:36:11;;;;;;;52.60;27.47;;;;;;;4.15;100.00;98945.78;5104477;28;20236;-68
2020/12/18 04:38:37;;;;;;;55.30;28.43;;;;;;;3.93;100.00;98946.09;5105083;28;20204;-68
2020/12/18 04:41:04;;;;;;;64.23;31.27;;;;;;;4.18;100.00;98947.16;5093232;28;20211;-69
2020/12/18 04:43:35;;;;;;;58.80;29.77;;;;;;;4.08;100.00;98948.81;5092384;28;20275;-69
2020/12/18 04:46:02;;;;;;;61.27;31.50;;;;;;;4.40;100.00;98951.19;5092420;28;20741;-68
2020/12/18 04:48:29;;;;;;;61.40;30.47;;;;;;;4.23;100.00;98953.41;5092525;28;20734;-68
2020/12/18 04:50:56;;;;;;;66.07;30.63;;;;;;;4.26;100.00;98954.75;5092577;28;20248;-69
2020/12/18 04:53:38;;;;;;;64.60;31.33;;;;;;;4.68;100.00;98944.25;5092022;28;20228;-68
2020/12/18 04:56:11;;;;;;;75.80;30.87;;;;;;;4.32;100.00;98953.66;5092525;28;20232;-68
2020/12/18 04:58:38;;;;;;;73.47;30.17;;;;;;;4.12;100.00;98949.88;5092376;28;20220;-70
2020/12/18 05:01:06;;;;;;;64.97;31.13;;;;;;;4.41;100.00;98957.47;5092361;28;20287;-69
2020/12/18 05:03:34;;;;;;;64.73;30.47;;;;;;;4.30;100.00;98955.84;5090478;28;20200;-68
2020/12/18 05:06:06;;;;;;;79.57;30.70;;;;;;;4.31;100.00;98946.56;5091893;28;20743;-69
2020/12/18 05:08:33;;;;;;;63.90;31.33;;;;;;;4.29;100.00;98946.03;5092138;28;20204;-68
2020/12/18 05:10:59;;;;;;;68.37;31.93;;;;;;;4.31;100.00;98947.38;5088882;28;20287;-69
2020/12/18 05:13:28;;;;;;;57.13;29.83;;;;;;;4.29;100.00;98956.97;5091570;28;20310;-69
2020/12/18 05:15:54;;;;;;;67.80;31.60;;;;;;;4.34;100.00;98954.22;5092226;28;20313;-68
2020/12/18 05:18:23;;;;;;;66.50;30.37;;;;;;;4.56;100.00;98954.69;5092174;28;20675;-70
2020/12/18 05:20:50;;;;;;;65.07;32.87;;;;;;;4.76;100.00;98960.09;5096121;28;20255;-67
2020/12/18 05:23:16;;;;;;;60.90;30.93;;;;;;;4.45;100.00;98958.56;5114212;28;20200;-67
2020/12/18 05:25:43;;;;;;;57.53;30.60;;;;;;;4.58;100.00;98963.44;5098956;28;20303;-68
2020/12/18 05:28:18;;;;;;;56.00;29.10;;;;;;;4.58;100.00;98963.44;5095081;28;20729;-69
2020/12/18 05:30:46;;;;;;;53.83;29.03;;;;;;;4.60;100.00;98966.72;5094140;28;20208;-68
2020/12/18 05:33:13;;;;;;;47.07;25.53;;;;;;;4.52;100.00;98964.53;5090670;28;20315;-69
2020/12/18 05:35:39;;;;;;;48.80;26.97;;;;;;;4.50;100.00;98961.28;5090715;28;20260;-68
2020/12/18 05:38:08;;;;;;;45.70;25.60;;;;;;;4.78;100.00;98958.69;5091933;28;20230;-68
2020/12/18 05:40:34;;;;;;;43.70;24.20;;;;;;;4.79;100.00;98952.16;5091909;28;20205;-68
2020/12/18 05:43:07;;;;;;;49.50;26.67;;;;;;;4.95;100.00;98945.50;5091341;28;20249;-68
2020/12/18 05:45:36;;;;;;;43.37;25.00;;;;;;;4.59;100.00;98940.47;5088618;28;20418;-70
2020/12/18 05:48:03;;;;;;;46.07;25.77;;;;;;;4.76;100.00;98943.69;5091757;28;20287;-68
2020/12/18 05:50:34;;;;;;;44.17;25.27;;;;;;;4.83;100.00;98950.50;5091879;28;20283;-69
2020/12/18 05:53:03;;;;;;;42.43;24.70;;;;;;;4.97;100.00;98946.03;5091188;28;20598;-69
2020/12/18 05:55:40;;;;;;;41.63;24.50;;;;;;;5.03;100.00;98952.31;5091527;28;20232;-69
2020/12/18 05:58:14;;;;;;;47.53;26.27;;;;;;;4.91;100.00;98958.09;5092033;28;20560;-69
2020/12/18 06:00:41;;;;;;;46.27;25.83;;;;;;;5.08;100.00;98957.75;5087585;28;20734;-69
2020/12/18 06:03:10;;;;;;;55.03;28.37;;;;;;;4.95;100.00;98956.44;5099662;28;20254;-69
2020/12/18 06:05:38;;;;;;;36.50;22.50;;;;;;;4.49;100.00;98956.91;5108540;28;20224;-69
2020/12/18 06:08:18;;;;;;;41.30;22.97;;;;;;;4.38;100.00;98958.03;5098820;28;20240;-68
2020/12/18 06:10:45;;;;;;;38.77;22.67;;;;;;;4.31;100.00;98968.41;5083049;28;20212;-69
2020/12/18 06:13:11;;;;;;;42.73;23.03;;;;;;;4.29;100.00;98970.63;5071124;28;20225;-68
2020/12/18 06:15:37;;;;;;;40.67;23.73;;;;;;;4.48;100.00;98974.38;5075849;28;20247;-69
2020/12/18 06:18:04;;;;;;;36.63;23.00;;;;;;;4.40;100.00;98966.78;5091728;28;20295;-69
2020/12/18 06:20:37;;;;;;;42.27;23.77;;;;;;;4.82;100.00;98959.78;5094628;28;20248;-70
2020/12/18 06:23:06;;;;;;;40.57;23.80;;;;;;;4.58;100.00;98963.44;5095139;28;20578;-68
2020/12/18 06:25:32;;;;;;;38.33;23.03;;;;;;;4.53;100.00;98960.69;5095427;28;20220;-72
2020/12/18 06:28:00;;;;;;;38.33;23.07;;;;;;;4.48;100.00;98961.56;5094172;28;20200;-68
2020/12/18 06:30:27;;;;;;;36.73;22.23;;;;;;;4.67;100.00;98964.50;5093220;28;20287;-68
2020/12/18 06:32:54;;;;;;;36.90;21.60;;;;;;;4.54;100.00;98963.19;5087880;28;20224;-68
2020/12/18 06:35:37;;;;;;;35.97;20.60;;;;;;;4.52;100.00;98967.28;5082726;28;20584;-68
2020/12/18 06:38:13;;;;;;;36.63;20.33;;;;;;;4.38;100.00;98966.22;5083637;28;20227;-68
2020/12/18 06:40:40;;;;;;;34.77;20.53;;;;;;;4.40;100.00;98966.78;5077328;28;20232;-68
2020/12/18 06:43:07;;;;;;;36.37;22.13;;;;;;;4.33;100.00;98975.25;5072714;28;20284;-70
2020/12/18 06:45:36;;;;;;;37.87;22.63;;;;;;;4.44;100.00;98979.59;5074503;28;20608;-71
2020/12/18 06:48:25;;;;;;;33.10;20.27;;;;;;;4.70;100.00;98989.38;5074236;28;20300;-71
2020/12/18 06:50:51;;;;;;;33.80;21.17;;;;;;;4.74;100.00;98998.66;5081277;28;20259;-68
2020/12/18 06:53:17;;;;;;;36.13;21.17;;;;;;;4.91;100.00;98990.91;5085606;28;20220;-68
2020/12/18 06:55:46;;;;;;;35.77;21.27;;;;;;;4.74;100.00;98997.81;5094223;28;20654;-67
2020/12/18 06:58:18;;;;;;;33.57;21.37;;;;;;;4.65;100.00;98994.03;5094415;28;20245;-67
2020/12/18 07:00:56;;;;;;;35.80;20.60;;;;;;;4.48;100.00;98993.50;5093608;28;20204;-67
2020/12/18 07:03:37;;;;;;;37.90;20.27;;;;;;;4.61;100.00;98991.03;5094137;28;20244;-67
2020/12/18 07:06:07;;;;;;;35.07;21.10;;;;;;;4.62;100.00;98986.38;5094276;28;20259;-67
2020/12/18 07:08:36;;;;;;;33.70;21.13;;;;;;;4.67;100.00;98983.63;5091206;28;20284;-67
2020/12/18 07:11:05;;;;;;;34.90;21.30;;;;;;;4.62;100.00;98981.72;5083703;28;20283;-67
2020/12/18 07:13:32;;;;;;;32.70;21.03;;;;;;;4.49;100.00;98986.97;5093746;28;20323;-67
2020/12/18 07:16:04;;;;;;;34.10;20.67;;;;;;;4.46;100.00;98984.78;5094295;28;20235;-66
2020/12/18 07:18:41;;;;;;;40.13;22.33;;;;;;;4.29;100.00;98989.75;5081720;28;20204;-65
2020/12/18 07:21:11;;;;;;;36.33;21.80;;;;;;;4.35;100.00;98996.81;5081375;28;20250;-67
2020/12/18 07:23:43;;;;;;;38.87;20.93;;;;;;;4.67;100.00;98994.56;5087827;28;20259;-66
2020/12/18 07:26:10;;;;;;;35.97;20.93;;;;;;;4.81;100.00;98985.50;5088915;28;20311;-67
2020/12/18 07:28:39;;;;;;;36.23;22.17;;;;;;;4.55;100.00;98989.41;5089353;28;20207;-67
2020/12/18 07:31:15;;;;;;;34.57;21.23;;;;;;;4.55;100.00;98988.56;5088433;28;20633;-66
2020/12/18 07:33:42;;;;;;;36.87;20.80;;;;;;;4.51;100.00;98984.75;5085666;28;20232;-66
2020/12/18 07:36:09;;;;;;;35.00;21.93;;;;;;;4.77;100.00;98986.31;5086211;28;21034;-66
2020/12/18 07:38:35;;;;;;;34.50;20.80;;;;;;;4.90;100.00;98988.47;5094812;28;20208;-66
2020/12/18 07:41:08;;;;;;;35.73;21.80;;;;;;;4.68;100.00;98996.19;5103934;28;20208;-66
2020/12/18 07:43:36;;;;;;;32.37;20.07;;;;;;;4.70;100.00;98988.53;5086331;28;20714;-67
2020/12/18 07:46:10;;;;;;;29.53;18.43;;;;;;;4.55;100.00;98988.56;5088317;28;20312;-67
2020/12/18 07:48:39;;;;;;;30.77;19.80;;;;;;;4.90;100.00;98992.03;5088330;28;20268;-67
2020/12/18 07:51:18;;;;;;;29.83;18.70;;;;;;;4.58;100.00;98983.38;5088684;28;20212;-67
2020/12/18 07:53:52;;;;;;;31.23;19.40;;;;;;;4.61;100.00;98984.75;5087735;28;20259;-66
2020/12/18 07:56:20;;;;;;;32.43;20.33;;;;;;;4.59;100.00;98981.47;5088068;28;20240;-66
2020/12/18 07:58:53;;;;;;;33.50;20.50;;;;;;;4.97;100.00;98978.03;5087270;28;20290;-67
2020/12/18 08:01:24;;;;;;;35.87;20.80;;;;;;;4.82;100.00;98980.81;5088070;28;20251;-67
2020/12/18 08:03:55;;;;;;;35.37;21.20;;;;;;;4.39;100.00;98984.25;5088004;28;20201;-67
2020/12/18 08:06:26;;;;;;;37.10;21.43;;;;;;;4.73;100.00;98990.72;5088523;28;20316;-69
2020/12/18 08:08:55;;;;;;;35.90;22.00;;;;;;;4.82;100.00;98986.28;5085900;28;20236;-68
2020/12/18 08:11:23;;;;;;;37.43;21.87;;;;;;;4.40;100.00;99002.28;5087416;28;20698;-68
2020/12/18 08:13:50;;;;;;;36.37;21.53;;;;;;;5.04;100.00;99001.25;5085803;28;20262;-69
2020/12/18 08:16:17;;;;;;;30.20;18.77;;;;;;;4.64;100.00;99000.56;5087282;28;20285;-68
2020/12/18 08:18:50;;;;;;;33.20;19.57;;;;;;;5.00;100.00;99007.56;5087288;28;20304;-68
2020/12/18 08:21:25;;;;;;;33.73;20.20;;;;;;;5.19;100.00;99003.09;5088788;28;20637;-68
2020/12/18 08:23:59;;;;;;;36.23;18.73;;;;;;;4.47;100.00;99000.88;5094686;28;20208;-68
2020/12/18 08:26:35;;;;;;;30.77;19.17;;;;;;;4.37;100.00;99008.28;5106283;28;20211;-68
2020/12/18 08:29:03;;;;;;;33.73;19.00;;;;;;;4.73;100.00;99012.56;5089275;28;20295;-68
2020/12/18 08:31:32;;;;;;;34.07;20.30;;;;;;;4.50;100.00;99008.56;5088421;28;20295;-68
2020/12/18 08:34:06;;;;;;;28.20;18.53;;;;;;;4.45;100.00;99002.28;5085138;28;20311;-68
2020/12/18 08:36:38;;;;;;;32.63;18.20;;;;;;;4.54;100.00;99000.63;5087243;28;20205;-68
2020/12/18 08:39:07;;;;;;;30.27;19.53;;;;;;;4.46;100.00;99002.00;5087721;28;20230;-70
2020/12/18 08:41:42;;;;;;;30.00;17.93;;;;;;;4.44;100.00;99011.56;5086391;28;20628;-69
2020/12/18 08:44:09;;;;;;;31.90;19.10;;;;;;;4.39;100.00;99011.56;5087075;28;20230;-70
2020/12/18 08:46:37;;;;;;;30.80;19.57;;;;;;;5.05;100.00;99010.28;5087579;28;20204;-66
2020/12/18 08:49:20;;;;;;;29.10;18.30;;;;;;;4.78;100.00;98999.72;5086810;28;20266;-70
2020/12/18 08:51:49;;;;;;;31.73;18.67;;;;;;;4.76;100.00;99003.84;5087282;28;20251;-69
2020/12/18 08:54:31;;;;;;;35.03;20.50;;;;;;;4.79;100.00;99000.53;5086291;28;20273;-71
2020/12/18 08:57:23;;;;;;;37.97;20.97;;;;;;;4.68;100.00;99004.41;5086369;28;20284;-67
2020/12/18 09:00:04;;;;;;;35.40;20.77;;;;;;;4.75;100.00;99003.00;5088246;28;20264;-68
2020/12/18 09:02:32;;;;;;;35.23;21.00;;;;;;;4.73;100.00;99009.84;5088035;28;20203;-68
2020/12/18 09:05:24;;;;;;;34.47;21.37;;;;;;;5.00;100.00;99010.28;5086150;28;20220;-69
2020/12/18 09:08:02;;;;;;;36.33;21.23;;;;;;;4.71;100.00;99007.41;5087987;28;20254;-70
2020/12/18 09:10:44;;;;;;;37.30;22.27;;;;;;;4.85;100.00;98999.44;5098645;28;20196;-71
2020/12/18 09:13:29;;;;;;;35.97;20.93;;;;;;;4.98;100.00;99002.38;5074390;28;20241;-69
2020/12/18 09:15:56;;;;;;;35.80;19.20;;;;;;;4.99;100.00;98998.56;5073967;28;20223;-69
2020/12/18 09:18:27;;;;;;;36.27;20.67;;;;;;;4.63;100.00;98988.03;5084331;28;20230;-70
2020/12/18 09:20:54;;;;;;;34.77;20.17;;;;;;;4.70;100.00;98994.00;5087082;28;20599;-69
2020/12/18 09:23:31;;;;;;;36.13;20.70;;;;;;;4.84;100.00;98992.31;5084430;28;20295;-68
2020/12/18 09:26:01;;;;;;;35.20;20.53;;;;;;;4.33;100.00;98991.63;5084943;28;20227;-68
2020/12/18 09:28:34;;;;;;;39.60;22.67;;;;;;;4.22;100.00;99003.66;5085736;28;20603;-69
2020/12/18 09:31:02;;;;;;;36.33;21.43;;;;;;;5.00;100.00;98996.63;5086142;28;20287;-69
2020/12/18 09:33:31;;;;;;;35.87;21.50;;;;;;;4.98;100.00;99001.56;5086073;28;20224;-68
2020/12/18 09:36:07;;;;;;;43.43;23.63;;;;;;;4.82;100.00;98991.75;5086267;28;20235;-68
2020/12/18 09:38:42;;;;;;;36.83;22.80;;;;;;;4.59;100.00;98986.94;5085773;28;20226;-68
2020/12/18 09:41:13;;;;;;;40.97;23.90;;;;;;;4.63;100.00;98988.03;5085970;28;20239;-67
2020/12/18 09:43:40;;;;;;;41.60;23.47;;;;;;;4.81;100.00;98979.19;5085157;28;20200;-68
2020/12/18 09:46:18;;;;;;;40.30;24.27;;;;;;;4.87;100.00;98983.56;5085832;28;20248;-68
2020/12/18 09:48:46;;;;;;;43.70;24.23;;;;;;;4.80;100.00;98985.78;5086048;28;20206;-68
2020/12/18 09:51:13;;;;;;;43.20;24.10;;;;;;;4.77;100.00;98980.84;5086335;28;20430;-68
2020/12/18 09:53:40;;;;;;;42.87;23.40;;;;;;;4.65;100.00;98980.38;5085034;28;20243;-69
2020/12/18 09:56:07;;;;;;;38.23;23.07;;;;;;;4.74;100.00;98974.03;5090168;28;20263;-69
2020/12/18 09:58:33;;;;;;;38.83;22.80;;;;;;;4.96;100.00;98970.94;5090280;28;20235;-67
2020/12/18 10:00:59;;;;;;;42.63;22.60;;;;;;;5.02;100.00;98975.28;5090908;28;20262;-71
2020/12/18 10:03:25;;;;;;;39.90;22.77;;;;;;;4.67;100.00;98972.72;5090459;28;20211;-67
2020/12/18 10:05:51;;;;;;;39.07;22.10;;;;;;;4.84;100.00;98971.25;5089507;28;20224;-69
2020/12/18 10:08:17;;;;;;;40.90;22.90;;;;;;;4.53;100.00;98977.09;5089187;28;20682;-68
2020/12/18 10:10:44;;;;;;;38.87;21.97;;;;;;;4.66;100.00;98971.06;5088809;28;20200;-68
2020/12/18 10:13:10;;;;;;;38.20;22.23;;;;;;;4.64;100.00;98968.59;5089262;28;20281;-69
2020/12/18 10:15:36;;;;;;;44.07;22.40;;;;;;;4.44;100.00;98974.13;5088142;28;20892;-68
2020/12/18 10:18:03;;;;;;;36.73;22.40;;;;;;;4.78;100.00;98968.84;5088175;28;20204;-69
2020/12/18 10:20:29;;;;;;;40.37;22.33;;;;;;;5.18;100.00;98968.66;5089237;28;20230;-68
2020/12/18 10:22:55;;;;;;;36.23;22.23;;;;;;;4.77;100.00;98964.44;5088360;28;20246;-69
2020/12/18 10:25:21;;;;;;;36.10;22.33;;;;;;;4.76;100.00;98960.09;5089516;28;20227;-69
2020/12/18 10:27:47;;;;;;;31.67;20.57;;;;;;;5.02;100.00;98969.81;5088590;28;20828;-69
2020/12/18 10:30:13;;;;;;;32.47;21.00;;;;;;;4.70;100.00;98972.13;5089795;28;20315;-69
2020/12/18 10:32:40;;;;;;;30.27;20.73;;;;;;;4.75;100.00;98967.47;5087653;28;20212;-69
2020/12/18 10:35:07;;;;;;;29.23;20.03;;;;;;;5.17;100.00;98972.47;5086185;28;20309;-68
2020/12/18 10:37:35;;;;;;;30.80;19.93;;;;;;;4.99;100.00;98959.44;5089101;28;20231;-68
2020/12/18 10:40:05;;;;;;;29.03;18.27;;;;;;;4.95;100.00;98956.44;5092327;28;20295;-67
2020/12/18 10:42:32;;;;;;;38.00;22.87;;;;;;;5.13;100.00;98960.44;5101181;28;20724;-67
2020/12/18 10:44:58;;;;;;;42.27;23.00;;;;;;;5.20;100.00;98955.47;5103710;28;20224;-69
2020/12/18 10:47:24;;;;;;;37.23;21.50;;;;;;;5.52;100.00;98955.00;5096683;28;20289;-67
2020/12/18 10:49:50;;;;;;;36.57;23.07;;;;;;;5.25;100.00;98952.72;5093544;28;20308;-71
2020/12/18 10:52:16;;;;;;;40.57;23.73;;;;;;;5.19;100.00;98951.13;5090385;28;20299;-70
2020/12/18 10:54:42;;;;;;;37.33;22.27;;;;;;;5.48;100.00;98945.72;5089846;28;20236;-70
2020/12/18 10:57:09;;;;;;;29.77;18.53;;;;;;;5.36;100.00;98943.34;5089027;28;20736;-70
2020/12/18 10:59:36;;;;;;;29.87;19.63;;;;;;;5.18;100.00;98952.22;5088610;28;20208;-69
2020/12/18 11:02:05;;;;;;;34.47;20.67;;;;;;;5.06;100.00;98940.78;5088495;28;20292;-68
2020/12/18 11:04:31;;;;;;;32.20;19.73;;;;;;;4.90;100.00;98939.25;5087830;28;20315;-69
2020/12/18 11:06:58;;;;;;;35.87;20.33;;;;;;;4.77;100.00;98939.84;5088046;28;20239;-70
2020/12/18 11:09:24;;;;;;;36.37;21.90;;;;;;;5.06;100.00;98944.34;5088557;28;20216;-69
2020/12/18 11:11:52;;;;;;;36.47;19.47;;;;;;;4.68;100.00;98942.34;5089464;28;20208;-69
2020/12/18 11:14:21;;;;;;;35.10;19.33;;;;;;;4.59;100.00;98944.03;5090060;28;20335;-69
2020/12/18 11:16:48;;;;;;;34.43;20.97;;;;;;;4.30;100.00;98948.47;5092509;28;20302;-69
2020/12/18 11:19:19;;;;;;;33.33;20.70;;;;;;;4.76;100.00;98944.47;5094249;28;20713;-69
2020/12/18 11:21:49;;;;;;;33.43;20.87;;;;;;;5.24;100.00;98940.13;5095888;28;20204;-70
2020/12/18 11:24:15;;;;;;;35.07;21.30;;;;;;;5.42;100.00;98935.94;5099593;28;20582;-71
2020/12/18 11:26:42;;;;;;;35.07;22.10;;;;;;;5.50;100.00;98938.88;5103545;28;20276;-68
2020/12/18 11:29:12;;;;;;;40.63;21.73;;;;;;;5.43;100.00;98927.44;5092144;28;20208;-68
2020/12/18 11:31:39;;;;;;;36.27;22.93;;;;;;;5.55;100.00;98919.66;5092284;28;20625;-69
2020/12/18 11:34:05;;;;;;;35.57;21.43;;;;;;;5.47;100.00;98914.81;5092869;28;20255;-67
2020/12/18 11:36:35;;;;;;;34.37;21.27;;;;;;;5.69;100.00;98908.91;5093687;28;20232;-67
2020/12/18 11:39:03;;;;;;;35.77;20.97;;;;;;;4.69;100.00;98900.22;5093145;28;20289;-67
2020/12/18 11:41:31;;;;;;;35.93;21.40;;;;;;;4.45;100.00;98898.44;5093303;28;20208;-67
2020/12/18 11:43:57;;;;;;;45.40;22.53;;;;;;;4.48;100.00;98912.38;5092997;28;20213;-69
2020/12/18 11:46:23;;;;;;;40.07;23.63;;;;;;;4.54;100.00;98910.44;5092985;28;20684;-71
2020/12/18 11:48:49;;;;;;;40.13;22.47;;;;;;;4.53;100.00;98911.50;5091353;28;20261;-70
2020/12/18 11:51:18;;;;;;;41.67;23.77;;;;;;;4.45;100.00;98920.31;5093098;28;20295;-70
2020/12/18 11:53:47;;;;;;;40.13;23.27;;;;;;;4.84;100.00;98918.47;5092998;28;20259;-69
2020/12/18 11:56:13;;;;;;;39.27;22.63;;;;;;;4.59;100.00;98922.16;5093141;28;20263;-69
2020/12/18 11:58:39;;;;;;;43.00;23.17;;;;;;;4.87;100.00;98917.94;5092806;28;20208;-69